sensor_id;sensor_type;location;lat;lon;timestamp;pressure;altitude;pressure_sealevel;temperature;humidity
64023;BME280;50264;52.088;5.296;2023-01-29T00:01:31;102992.0;;;3.49;88.28
64023;BME280;50264;52.088;5.296;2023-01-29T00:04:44;102993.0;;;3.44;89.2
64023;BME280;50264;52.088;5.296;2023-01-29T00:06:22;102990.00000000001;;;3.42;89.58
64023;BME280;50264;52.088;5.296;2023-01-29T00:08:00;102990.00000000001;;;3.44;88.99
64023;BME280;50264;52.088;5.296;2023-01-29T00:09:37;102986.99999999999;;;3.43;88.95
64023;BME280;50264;52.088;5.296;2023-01-29T00:12:52;102982.0;;;3.46;89.65
64023;BME280;50264;52.088;5.296;2023-01-29T00:14:29;102975.0;;;3.46;89.49
64023;BME280;50264;52.088;5.296;2023-01-29T00:16:05;102970.0;;;3.55;89.13
64023;BME280;50264;52.088;5.296;2023-01-29T00:19:20;102968.0;;;3.49;88.44
64023;BME280;50264;52.088;5.296;2023-01-29T00:20:56;102956.0;;;3.52;88.97
64023;BME280;50264;52.088;5.296;2023-01-29T00:22:33;102950.0;;;3.52;89.39
64023;BME280;50264;52.088;5.296;2023-01-29T00:25:47;102956.0;;;3.5;89.0
64023;BME280;50264;52.088;5.296;2023-01-29T00:27:24;102952.0;;;3.48;89.31
64023;BME280;50264;52.088;5.296;2023-01-29T00:29:01;102951.0;;;3.54;89.14
64023;BME280;50264;52.088;5.296;2023-01-29T00:30:38;102943.0;;;3.46;89.61
64023;BME280;50264;52.088;5.296;2023-01-29T00:33:52;102942.0;;;3.42;90.29
64023;BME280;50264;52.088;5.296;2023-01-29T00:35:28;102950.0;;;3.44;89.25
64023;BME280;50264;52.088;5.296;2023-01-29T00:37:07;102952.0;;;3.43;89.51
64023;BME280;50264;52.088;5.296;2023-01-29T00:40:22;102954.0;;;3.39;90.12
64023;BME280;50264;52.088;5.296;2023-01-29T00:46:10;102956.0;;;3.38;89.94
64023;BME280;50264;52.088;5.296;2023-01-29T00:47:46;102952.0;;;3.34;90.0
64023;BME280;50264;52.088;5.296;2023-01-29T00:49:23;102950.0;;;3.43;89.95
64023;BME280;50264;52.088;5.296;2023-01-29T00:52:40;102949.0;;;3.51;89.57
64023;BME280;50264;52.088;5.296;2023-01-29T00:54:18;102946.0;;;3.46;89.98
64023;BME280;50264;52.088;5.296;2023-01-29T00:55:54;102947.0;;;3.5;89.53
64023;BME280;50264;52.088;5.296;2023-01-29T00:59:10;102940.00000000001;;;3.48;89.63
64023;BME280;50264;52.088;5.296;2023-01-29T01:00:48;102941.00000000001;;;3.4;89.87
64023;BME280;50264;52.088;5.296;2023-01-29T01:03:28;102933.99999999999;;;3.49;90.22
64023;BME280;50264;52.088;5.296;2023-01-29T01:05:10;102938.00000000001;;;3.53;90.04
64023;BME280;50264;52.088;5.296;2023-01-29T01:06:51;102933.0;;;3.6;90.08
64023;BME280;50264;52.088;5.296;2023-01-29T01:10:58;102932.0;;;3.58;90.01
64023;BME280;50264;52.088;5.296;2023-01-29T01:12:34;102930.0;;;3.51;90.59
64023;BME280;50264;52.088;5.296;2023-01-29T01:15:47;102924.0;;;3.51;90.35
64023;BME280;50264;52.088;5.296;2023-01-29T01:17:24;102927.0;;;3.57;90.01
64023;BME280;50264;52.088;5.296;2023-01-29T01:19:01;102920.0;;;3.67;90.32
64023;BME280;50264;52.088;5.296;2023-01-29T01:22:16;102916.00000000001;;;3.6;89.64
64023;BME280;50264;52.088;5.296;2023-01-29T01:23:53;102906.0;;;3.57;90.29
64023;BME280;50264;52.088;5.296;2023-01-29T01:25:29;102911.99999999999;;;3.64;89.53
64023;BME280;50264;52.088;5.296;2023-01-29T01:27:06;102918.0;;;3.59;89.92
64023;BME280;50264;52.088;5.296;2023-01-29T01:30:20;102917.0;;;3.69;89.9
64023;BME280;50264;52.088;5.296;2023-01-29T01:31:58;102921.0;;;3.76;88.8
64023;BME280;50264;52.088;5.296;2023-01-29T01:33:36;102926.0;;;3.71;89.45
64023;BME280;50264;52.088;5.296;2023-01-29T01:36:51;102928.0;;;3.67;89.52
64023;BME280;50264;52.088;5.296;2023-01-29T01:38:28;102933.0;;;3.65;89.76
64023;BME280;50264;52.088;5.296;2023-01-29T01:40:14;102938.00000000001;;;3.61;90.68
64023;BME280;50264;52.088;5.296;2023-01-29T01:41:53;102938.00000000001;;;3.62;90.77
64023;BME280;50264;52.088;5.296;2023-01-29T01:45:25;102938.00000000001;;;3.65;90.19
64023;BME280;50264;52.088;5.296;2023-01-29T01:47:03;102924.0;;;3.73;90.57
64023;BME280;50264;52.088;5.296;2023-01-29T01:48:41;102924.0;;;3.81;89.9
64023;BME280;50264;52.088;5.296;2023-01-29T01:50:23;102925.0;;;3.77;89.44
64023;BME280;50264;52.088;5.296;2023-01-29T01:53:42;102931.0;;;3.8;89.21
64023;BME280;50264;52.088;5.296;2023-01-29T01:55:24;102929.0;;;3.84;88.85
64023;BME280;50264;52.088;5.296;2023-01-29T01:57:11;102928.0;;;3.8;89.87
64023;BME280;50264;52.088;5.296;2023-01-29T01:58:53;102938.00000000001;;;3.73;90.13
64023;BME280;50264;52.088;5.296;2023-01-29T02:00:32;102938.00000000001;;;3.78;90.24
64023;BME280;50264;52.088;5.296;2023-01-29T02:10:31;102919.0;;;3.81;89.21
64023;BME280;50264;52.088;5.296;2023-01-29T02:12:13;102924.0;;;3.89;87.51
64023;BME280;50264;52.088;5.296;2023-01-29T02:13:52;102933.0;;;3.85;89.49
64023;BME280;50264;52.088;5.296;2023-01-29T02:15:29;102931.0;;;3.83;88.87
64023;BME280;50264;52.088;5.296;2023-01-29T02:18:47;102928.0;;;3.84;89.39
64023;BME280;50264;52.088;5.296;2023-01-29T02:20:27;102925.0;;;3.92;86.87
64023;BME280;50264;52.088;5.296;2023-01-29T02:22:15;102929.0;;;3.89;87.07
64023;BME280;50264;52.088;5.296;2023-01-29T02:24:09;102928.0;;;3.91;86.58
64023;BME280;50264;52.088;5.296;2023-01-29T02:26:38;102920.0;;;3.85;88.45
64023;BME280;50264;52.088;5.296;2023-01-29T02:28:31;102922.0;;;3.94;86.96
64023;BME280;50264;52.088;5.296;2023-01-29T02:30:16;102927.0;;;3.92;88.28
64023;BME280;50264;52.088;5.296;2023-01-29T02:32:08;102928.0;;;4.01;88.13
64023;BME280;50264;52.088;5.296;2023-01-29T02:35:54;102926.0;;;4.03;87.02
64023;BME280;50264;52.088;5.296;2023-01-29T02:37:38;102928.0;;;4.14;85.93
64023;BME280;50264;52.088;5.296;2023-01-29T02:39:23;102939.00000000001;;;4.22;85.76
64023;BME280;50264;52.088;5.296;2023-01-29T02:41:07;102941.00000000001;;;4.16;87.34
64023;BME280;50264;52.088;5.296;2023-01-29T02:42:55;102940.00000000001;;;4.07;87.99
64023;BME280;50264;52.088;5.296;2023-01-29T02:44:39;102942.0;;;4.2;86.46
64023;BME280;50264;52.088;5.296;2023-01-29T02:48:04;102939.00000000001;;;4.25;86.27
64023;BME280;50264;52.088;5.296;2023-01-29T02:49:46;102939.00000000001;;;4.2;85.97
64023;BME280;50264;52.088;5.296;2023-01-29T02:51:30;102939.00000000001;;;4.14;86.59
64023;BME280;50264;52.088;5.296;2023-01-29T02:53:14;102942.0;;;4.03;88.1
64023;BME280;50264;52.088;5.296;2023-01-29T02:54:55;102944.0;;;4.1;87.9
64023;BME280;50264;52.088;5.296;2023-01-29T02:58:26;102945.0;;;4.04;88.16
64023;BME280;50264;52.088;5.296;2023-01-29T03:00:09;102934.99999999999;;;3.98;88.81
64023;BME280;50264;52.088;5.296;2023-01-29T03:01:52;102941.00000000001;;;3.92;89.78
64023;BME280;50264;52.088;5.296;2023-01-29T03:03:35;102936.99999999999;;;3.98;88.53
64023;BME280;50264;52.088;5.296;2023-01-29T03:07:04;102939.00000000001;;;4.05;87.88
64023;BME280;50264;52.088;5.296;2023-01-29T03:08:48;102940.00000000001;;;3.98;88.42
64023;BME280;50264;52.088;5.296;2023-01-29T03:10:31;102932.0;;;4.13;87.65
64023;BME280;50264;52.088;5.296;2023-01-29T03:12:21;102933.99999999999;;;4.01;87.75
64023;BME280;50264;52.088;5.296;2023-01-29T03:14:11;102929.0;;;3.94;89.08
64023;BME280;50264;52.088;5.296;2023-01-29T03:15:57;102928.0;;;3.92;89.39
64023;BME280;50264;52.088;5.296;2023-01-29T03:19:28;102924.0;;;3.97;89.12
64023;BME280;50264;52.088;5.296;2023-01-29T03:21:51;102917.0;;;3.97;89.35
64023;BME280;50264;52.088;5.296;2023-01-29T03:32:15;102911.99999999999;;;4.01;89.42
64023;BME280;50264;52.088;5.296;2023-01-29T03:33:59;102908.99999999999;;;3.9;89.68
64023;BME280;50264;52.088;5.296;2023-01-29T03:35:50;102907.0;;;3.97;87.88
64023;BME280;50264;52.088;5.296;2023-01-29T03:37:35;102896.0;;;4.0;87.98
64023;BME280;50264;52.088;5.296;2023-01-29T03:39:15;102884.99999999999;;;4.03;88.73
64023;BME280;50264;52.088;5.296;2023-01-29T03:42:43;102881.0;;;4.04;88.45
64023;BME280;50264;52.088;5.296;2023-01-29T03:44:31;102877.0;;;4.05;88.83
64023;BME280;50264;52.088;5.296;2023-01-29T03:46:23;102879.0;;;4.07;88.68
64023;BME280;50264;52.088;5.296;2023-01-29T03:48:05;102881.0;;;4.0;89.28
64023;BME280;50264;52.088;5.296;2023-01-29T03:49:55;102878.0;;;3.98;88.4
64023;BME280;50264;52.088;5.296;2023-01-29T03:51:37;102874.0;;;3.98;89.07
64023;BME280;50264;52.088;5.296;2023-01-29T03:55:11;102872.0;;;4.07;89.03
64023;BME280;50264;52.088;5.296;2023-01-29T03:56:56;102873.0;;;4.04;88.47
64023;BME280;50264;52.088;5.296;2023-01-29T03:58:37;102878.0;;;4.05;86.41
64023;BME280;50264;52.088;5.296;2023-01-29T04:00:22;102875.0;;;4.05;87.68
64023;BME280;50264;52.088;5.296;2023-01-29T04:02:05;102874.0;;;4.03;87.87
64023;BME280;50264;52.088;5.296;2023-01-29T04:05:32;102872.0;;;3.97;88.46
64023;BME280;50264;52.088;5.296;2023-01-29T04:07:16;102867.0;;;3.97;89.16
64023;BME280;50264;52.088;5.296;2023-01-29T04:08:58;102871.0;;;3.94;88.52
64023;BME280;50264;52.088;5.296;2023-01-29T04:10:38;102872.0;;;3.95;87.07
64023;BME280;50264;52.088;5.296;2023-01-29T04:12:20;102864.00000000001;;;4.03;86.96
64023;BME280;50264;52.088;5.296;2023-01-29T04:15:45;102859.99999999999;;;3.97;87.44
64023;BME280;50264;52.088;5.296;2023-01-29T04:17:28;102852.0;;;3.86;87.1
64023;BME280;50264;52.088;5.296;2023-01-29T04:19:09;102851.0;;;4.01;86.51
64023;BME280;50264;52.088;5.296;2023-01-29T04:20:47;102854.0;;;3.93;86.02
64023;BME280;50264;52.088;5.296;2023-01-29T04:24:08;102852.0;;;3.95;86.43
64023;BME280;50264;52.088;5.296;2023-01-29T04:26:00;102858.0;;;4.0;85.71
64023;BME280;50264;52.088;5.296;2023-01-29T04:27:46;102856.0;;;3.99;86.78
64023;BME280;50264;52.088;5.296;2023-01-29T04:29:41;102861.99999999999;;;3.97;86.14
64023;BME280;50264;52.088;5.296;2023-01-29T04:31:22;102855.0;;;4.05;85.07
64023;BME280;50264;52.088;5.296;2023-01-29T04:34:59;102850.0;;;3.95;85.86
64023;BME280;50264;52.088;5.296;2023-01-29T04:36:46;102849.0;;;3.99;85.2
64023;BME280;50264;52.088;5.296;2023-01-29T04:38:39;102847.0;;;3.96;86.08
64023;BME280;50264;52.088;5.296;2023-01-29T04:40:25;102849.0;;;3.87;86.15
64023;BME280;50264;52.088;5.296;2023-01-29T04:42:12;102849.0;;;3.91;86.55
64023;BME280;50264;52.088;5.296;2023-01-29T04:43:59;102842.0;;;4.0;85.37
64023;BME280;50264;52.088;5.296;2023-01-29T04:47:34;102839.00000000001;;;3.93;86.33
64023;BME280;50264;52.088;5.296;2023-01-29T04:49:23;102833.99999999999;;;3.92;85.51
64023;BME280;50264;52.088;5.296;2023-01-29T04:51:10;102842.0;;;4.07;85.1
64023;BME280;50264;52.088;5.296;2023-01-29T04:52:56;102841.00000000001;;;3.94;85.12
64023;BME280;50264;52.088;5.296;2023-01-29T04:54:47;102834.99999999999;;;3.94;86.33
64023;BME280;50264;52.088;5.296;2023-01-29T04:57:17;102833.99999999999;;;3.94;84.5
64023;BME280;50264;52.088;5.296;2023-01-29T04:59:02;102833.0;;;3.97;84.79
64023;BME280;50264;52.088;5.296;2023-01-29T05:00:42;102830.0;;;3.97;85.66
64023;BME280;50264;52.088;5.296;2023-01-29T05:04:03;102822.0;;;3.85;85.13
64023;BME280;50264;52.088;5.296;2023-01-29T05:05:45;102816.00000000001;;;3.94;84.42
64023;BME280;50264;52.088;5.296;2023-01-29T05:07:24;102818.0;;;3.92;85.1
64023;BME280;50264;52.088;5.296;2023-01-29T05:09:04;102820.0;;;3.9;85.29
64023;BME280;50264;52.088;5.296;2023-01-29T05:12:21;102818.0;;;3.88;84.45
64023;BME280;50264;52.088;5.296;2023-01-29T05:14:03;102819.0;;;3.85;84.96
64023;BME280;50264;52.088;5.296;2023-01-29T05:15:44;102816.00000000001;;;3.86;84.95
64023;BME280;50264;52.088;5.296;2023-01-29T05:17:24;102811.99999999999;;;4.01;83.46
64023;BME280;50264;52.088;5.296;2023-01-29T05:20:40;102817.0;;;4.05;83.81
64023;BME280;50264;52.088;5.296;2023-01-29T05:22:21;102821.0;;;4.03;83.42
64023;BME280;50264;52.088;5.296;2023-01-29T05:24:08;102826.0;;;3.95;83.82
64023;BME280;50264;52.088;5.296;2023-01-29T05:25:46;102824.0;;;3.86;84.47
64023;BME280;50264;52.088;5.296;2023-01-29T05:30:06;102830.0;;;3.87;84.16
64023;BME280;50264;52.088;5.296;2023-01-29T05:33:24;102833.99999999999;;;3.93;84.27
64023;BME280;50264;52.088;5.296;2023-01-29T05:35:02;102833.0;;;4.03;83.76
64023;BME280;50264;52.088;5.296;2023-01-29T05:36:39;102829.0;;;3.95;83.11
64023;BME280;50264;52.088;5.296;2023-01-29T05:38:17;102833.0;;;4.0;83.77
64023;BME280;50264;52.088;5.296;2023-01-29T05:41:32;102816.00000000001;;;4.07;83.98
64023;BME280;50264;52.088;5.296;2023-01-29T05:43:14;102822.0;;;4.07;82.53
64023;BME280;50264;52.088;5.296;2023-01-29T05:44:52;102816.00000000001;;;4.07;83.45
64023;BME280;50264;52.088;5.296;2023-01-29T05:46:28;102825.0;;;4.03;82.99
64023;BME280;50264;52.088;5.296;2023-01-29T05:49:42;102830.0;;;3.91;82.95
64023;BME280;50264;52.088;5.296;2023-01-29T05:51:19;102827.0;;;3.89;83.04
64023;BME280;50264;52.088;5.296;2023-01-29T05:52:56;102831.0;;;3.92;83.5
64023;BME280;50264;52.088;5.296;2023-01-29T05:56:08;102836.99999999999;;;3.94;83.89
64023;BME280;50264;52.088;5.296;2023-01-29T05:57:44;102832.0;;;3.92;83.69
64023;BME280;50264;52.088;5.296;2023-01-29T05:59:22;102833.99999999999;;;4.03;83.35
64023;BME280;50264;52.088;5.296;2023-01-29T06:02:44;102823.0;;;3.93;84.2
64023;BME280;50264;52.088;5.296;2023-01-29T06:04:21;102814.00000000001;;;3.87;84.71
64023;BME280;50264;52.088;5.296;2023-01-29T06:05:57;102803.0;;;3.89;83.05
64023;BME280;50264;52.088;5.296;2023-01-29T06:07:33;102801.0;;;3.88;83.85
64023;BME280;50264;52.088;5.296;2023-01-29T06:10:47;102804.0;;;3.9;83.51
64023;BME280;50264;52.088;5.296;2023-01-29T06:12:25;102801.0;;;3.92;84.06
64023;BME280;50264;52.088;5.296;2023-01-29T06:14:02;102802.0;;;3.89;82.35
64023;BME280;50264;52.088;5.296;2023-01-29T06:17:17;102788.00000000001;;;3.8;83.84
64023;BME280;50264;52.088;5.296;2023-01-29T06:18:54;102784.99999999999;;;3.79;83.18
64023;BME280;50264;52.088;5.296;2023-01-29T06:20:31;102789.00000000001;;;3.76;83.12
64023;BME280;50264;52.088;5.296;2023-01-29T06:22:07;102789.00000000001;;;3.82;83.48
64023;BME280;50264;52.088;5.296;2023-01-29T06:25:21;102792.0;;;3.83;82.99
64023;BME280;50264;52.088;5.296;2023-01-29T06:26:58;102792.0;;;3.83;82.97
64023;BME280;50264;52.088;5.296;2023-01-29T06:28:34;102786.99999999999;;;3.92;81.81
64023;BME280;50264;52.088;5.296;2023-01-29T06:31:48;102780.0;;;3.92;82.9
64023;BME280;50264;52.088;5.296;2023-01-29T06:33:24;102775.0;;;3.86;81.95
64023;BME280;50264;52.088;5.296;2023-01-29T06:35:01;102772.0;;;3.85;81.08
64023;BME280;50264;52.088;5.296;2023-01-29T06:36:41;102776.0;;;3.8;81.42
64023;BME280;50264;52.088;5.296;2023-01-29T06:39:53;102776.0;;;3.79;81.61
64023;BME280;50264;52.088;5.296;2023-01-29T06:41:30;102772.0;;;3.91;82.62
64023;BME280;50264;52.088;5.296;2023-01-29T06:43:06;102780.0;;;3.82;81.97
64023;BME280;50264;52.088;5.296;2023-01-29T06:46:19;102782.0;;;3.81;82.51
64023;BME280;50264;52.088;5.296;2023-01-29T06:47:56;102776.0;;;3.83;81.8
64023;BME280;50264;52.088;5.296;2023-01-29T06:49:32;102777.0;;;3.95;82.36
64023;BME280;50264;52.088;5.296;2023-01-29T06:52:47;102779.0;;;3.95;81.45
64023;BME280;50264;52.088;5.296;2023-01-29T06:54:23;102782.0;;;4.03;81.78
64023;BME280;50264;52.088;5.296;2023-01-29T06:55:59;102780.0;;;4.0;82.02
64023;BME280;50264;52.088;5.296;2023-01-29T06:57:36;102783.99999999999;;;3.89;81.55
64023;BME280;50264;52.088;5.296;2023-01-29T07:00:50;102777.0;;;3.92;80.12
64023;BME280;50264;52.088;5.296;2023-01-29T07:02:28;102777.0;;;3.96;80.23
64023;BME280;50264;52.088;5.296;2023-01-29T07:04:04;102779.0;;;3.9;81.33
64023;BME280;50264;52.088;5.296;2023-01-29T07:07:18;102791.00000000001;;;3.98;81.69
64023;BME280;50264;52.088;5.296;2023-01-29T07:08:54;102782.0;;;3.89;80.84
64023;BME280;50264;52.088;5.296;2023-01-29T07:10:31;102771.0;;;4.03;79.83
64023;BME280;50264;52.088;5.296;2023-01-29T07:13:44;102767.0;;;3.9;82.02
64023;BME280;50264;52.088;5.296;2023-01-29T07:15:21;102774.0;;;3.82;81.58
64023;BME280;50264;52.088;5.296;2023-01-29T07:16:57;102775.0;;;3.79;81.56
64023;BME280;50264;52.088;5.296;2023-01-29T07:18:35;102780.0;;;3.94;81.7
64023;BME280;50264;52.088;5.296;2023-01-29T07:21:48;102778.0;;;4.03;81.22
64023;BME280;50264;52.088;5.296;2023-01-29T07:23:24;102781.0;;;3.93;82.05
64023;BME280;50264;52.088;5.296;2023-01-29T07:25:01;102782.0;;;3.95;82.6
64023;BME280;50264;52.088;5.296;2023-01-29T07:28:14;102782.0;;;3.98;81.8
64023;BME280;50264;52.088;5.296;2023-01-29T07:29:51;102774.0;;;3.95;81.56
64023;BME280;50264;52.088;5.296;2023-01-29T07:31:29;102778.0;;;3.99;82.46
64023;BME280;50264;52.088;5.296;2023-01-29T07:34:45;102777.0;;;4.05;81.93
64023;BME280;50264;52.088;5.296;2023-01-29T07:36:21;102773.0;;;4.13;82.09
64023;BME280;50264;52.088;5.296;2023-01-29T07:37:59;102772.0;;;4.13;80.67
64023;BME280;50264;52.088;5.296;2023-01-29T07:39:35;102782.0;;;4.12;81.96
64023;BME280;50264;52.088;5.296;2023-01-29T07:42:48;102783.0;;;4.18;81.55
64023;BME280;50264;52.088;5.296;2023-01-29T07:44:25;102783.0;;;4.28;82.23
64023;BME280;50264;52.088;5.296;2023-01-29T07:46:01;102779.0;;;4.24;80.74
64023;BME280;50264;52.088;5.296;2023-01-29T07:49:15;102763.00000000001;;;4.26;81.16
64023;BME280;50264;52.088;5.296;2023-01-29T07:50:53;102761.99999999999;;;4.1;82.47
64023;BME280;50264;52.088;5.296;2023-01-29T07:52:32;102754.0;;;4.28;80.72
64023;BME280;50264;52.088;5.296;2023-01-29T07:54:08;102759.99999999999;;;4.18;81.08
64023;BME280;50264;52.088;5.296;2023-01-29T07:57:22;102756.0;;;4.24;81.67
64023;BME280;50264;52.088;5.296;2023-01-29T07:58:59;102752.0;;;4.22;78.95
64023;BME280;50264;52.088;5.296;2023-01-29T08:00:36;102751.0;;;4.2;80.09
64023;BME280;50264;52.088;5.296;2023-01-29T08:03:50;102744.0;;;4.18;80.11
64023;BME280;50264;52.088;5.296;2023-01-29T08:05:27;102750.0;;;4.07;79.56
64023;BME280;50264;52.088;5.296;2023-01-29T08:07:05;102738.00000000001;;;4.18;79.34
64023;BME280;50264;52.088;5.296;2023-01-29T08:08:41;102740.00000000001;;;4.2;79.05
64023;BME280;50264;52.088;5.296;2023-01-29T08:11:56;102739.00000000001;;;4.26;79.77
64023;BME280;50264;52.088;5.296;2023-01-29T08:13:33;102733.99999999999;;;4.21;78.67
64023;BME280;50264;52.088;5.296;2023-01-29T08:15:10;102729.0;;;4.25;78.47
64023;BME280;50264;52.088;5.296;2023-01-29T08:18:24;102728.0;;;4.36;79.69
64023;BME280;50264;52.088;5.296;2023-01-29T08:20:01;102727.0;;;4.29;78.94
64023;BME280;50264;52.088;5.296;2023-01-29T08:21:38;102729.0;;;4.34;79.33
64023;BME280;50264;52.088;5.296;2023-01-29T08:24:52;102731.0;;;4.25;79.48
64023;BME280;50264;52.088;5.296;2023-01-29T08:26:28;102731.0;;;4.29;78.77
64023;BME280;50264;52.088;5.296;2023-01-29T08:28:05;102736.99999999999;;;4.28;78.97
64023;BME280;50264;52.088;5.296;2023-01-29T08:29:42;102729.0;;;4.41;78.52
64023;BME280;50264;52.088;5.296;2023-01-29T08:32:55;102726.0;;;4.55;78.64
64023;BME280;50264;52.088;5.296;2023-01-29T08:34:32;102728.0;;;4.33;77.94
64023;BME280;50264;52.088;5.296;2023-01-29T08:36:10;102729.0;;;4.38;78.44
64023;BME280;50264;52.088;5.296;2023-01-29T08:39:31;102724.0;;;4.46;79.39
64023;BME280;50264;52.088;5.296;2023-01-29T08:41:08;102722.0;;;4.41;77.58
64023;BME280;50264;52.088;5.296;2023-01-29T08:42:44;102716.00000000001;;;4.49;78.44
64023;BME280;50264;52.088;5.296;2023-01-29T08:44:20;102711.99999999999;;;4.46;77.3
64023;BME280;50264;52.088;5.296;2023-01-29T08:47:34;102706.0;;;4.34;78.66
64023;BME280;50264;52.088;5.296;2023-01-29T08:49:11;102707.0;;;4.45;79.62
64023;BME280;50264;52.088;5.296;2023-01-29T08:50:48;102704.0;;;4.32;78.03
64023;BME280;50264;52.088;5.296;2023-01-29T08:54:00;102703.0;;;4.28;77.45
64023;BME280;50264;52.088;5.296;2023-01-29T08:55:37;102708.0;;;4.22;77.8
64023;BME280;50264;52.088;5.296;2023-01-29T08:57:15;102700.0;;;4.32;78.77
64023;BME280;50264;52.088;5.296;2023-01-29T09:00:29;102692.0;;;4.32;78.94
64023;BME280;50264;52.088;5.296;2023-01-29T09:02:05;102695.0;;;4.37;78.95
64023;BME280;50264;52.088;5.296;2023-01-29T09:03:42;102704.0;;;4.37;77.61
64023;BME280;50264;52.088;5.296;2023-01-29T09:05:19;102704.0;;;4.49;76.66
64023;BME280;50264;52.088;5.296;2023-01-29T09:08:33;102700.0;;;4.42;77.62
64023;BME280;50264;52.088;5.296;2023-01-29T09:10:11;102703.0;;;4.47;77.11
64023;BME280;50264;52.088;5.296;2023-01-29T09:11:48;102702.0;;;4.47;76.97
64023;BME280;50264;52.088;5.296;2023-01-29T09:15:01;102707.0;;;4.47;78.05
64023;BME280;50264;52.088;5.296;2023-01-29T09:16:38;102706.0;;;4.66;77.55
64023;BME280;50264;52.088;5.296;2023-01-29T09:18:15;102703.0;;;4.61;76.16
64023;BME280;50264;52.088;5.296;2023-01-29T09:19:52;102704.0;;;4.62;76.74
64023;BME280;50264;52.088;5.296;2023-01-29T09:23:07;102700.0;;;4.67;76.45
64023;BME280;50264;52.088;5.296;2023-01-29T09:24:44;102702.0;;;4.58;76.55
64023;BME280;50264;52.088;5.296;2023-01-29T09:29:35;102695.0;;;4.32;77.55
64023;BME280;50264;52.088;5.296;2023-01-29T09:31:12;102707.0;;;4.41;78.81
64023;BME280;50264;52.088;5.296;2023-01-29T09:32:49;102697.0;;;4.57;77.06
64023;BME280;50264;52.088;5.296;2023-01-29T09:36:02;102705.0;;;4.59;77.45
64023;BME280;50264;52.088;5.296;2023-01-29T09:37:39;102707.0;;;4.62;77.34
64023;BME280;50264;52.088;5.296;2023-01-29T09:40:58;102699.0;;;4.55;76.81
64023;BME280;50264;52.088;5.296;2023-01-29T09:44:41;102693.0;;;4.72;76.95
64023;BME280;50264;52.088;5.296;2023-01-29T09:46:32;102694.0;;;4.74;76.61
64023;BME280;50264;52.088;5.296;2023-01-29T09:48:13;102697.0;;;4.8;76.72
64023;BME280;50264;52.088;5.296;2023-01-29T09:49:51;102697.0;;;4.74;77.61
64023;BME280;50264;52.088;5.296;2023-01-29T09:51:35;102698.0;;;4.76;76.41
64023;BME280;50264;52.088;5.296;2023-01-29T09:55:01;102700.0;;;4.87;76.74
64023;BME280;50264;52.088;5.296;2023-01-29T09:56:42;102698.0;;;4.79;76.12
64023;BME280;50264;52.088;5.296;2023-01-29T09:58:26;102692.0;;;4.78;76.75
64023;BME280;50264;52.088;5.296;2023-01-29T10:00:04;102689.00000000001;;;4.78;77.13
64023;BME280;50264;52.088;5.296;2023-01-29T10:01:48;102686.99999999999;;;4.78;76.69
64023;BME280;50264;52.088;5.296;2023-01-29T10:05:47;102686.99999999999;;;4.95;75.86
64023;BME280;50264;52.088;5.296;2023-01-29T10:07:41;102699.0;;;5.03;76.25
64023;BME280;50264;52.088;5.296;2023-01-29T10:10:02;102696.0;;;5.07;74.58
64023;BME280;50264;52.088;5.296;2023-01-29T10:12:00;102689.00000000001;;;4.93;75.19
64023;BME280;50264;52.088;5.296;2023-01-29T10:13:49;102692.0;;;5.03;76.48
64023;BME280;50264;52.088;5.296;2023-01-29T10:15:46;102692.0;;;5.09;75.16
64023;BME280;50264;52.088;5.296;2023-01-29T10:17:40;102683.0;;;5.0;74.97
64023;BME280;50264;52.088;5.296;2023-01-29T10:20:54;102690.00000000001;;;4.95;75.77
64023;BME280;50264;52.088;5.296;2023-01-29T10:23:06;102691.00000000001;;;5.11;74.33
64023;BME280;50264;52.088;5.296;2023-01-29T10:24:56;102686.99999999999;;;5.01;75.98
64023;BME280;50264;52.088;5.296;2023-01-29T10:28:17;102693.0;;;5.03;74.69
64023;BME280;50264;52.088;5.296;2023-01-29T10:29:55;102681.0;;;4.93;75.27
64023;BME280;50264;52.088;5.296;2023-01-29T10:31:37;102670.0;;;4.87;75.73
64023;BME280;50264;52.088;5.296;2023-01-29T10:33:18;102669.0;;;4.95;75.41
64023;BME280;50264;52.088;5.296;2023-01-29T10:36:58;102668.0;;;5.03;75.02
64023;BME280;50264;52.088;5.296;2023-01-29T10:38:41;102667.0;;;5.03;75.27
64023;BME280;50264;52.088;5.296;2023-01-29T10:40:20;102659.99999999999;;;5.03;75.19
64023;BME280;50264;52.088;5.296;2023-01-29T10:42:09;102663.00000000001;;;5.05;74.77
64023;BME280;50264;52.088;5.296;2023-01-29T10:44:00;102654.0;;;5.12;75.77
64023;BME280;50264;52.088;5.296;2023-01-29T10:45:54;102650.0;;;5.07;75.8
64023;BME280;50264;52.088;5.296;2023-01-29T10:50:40;102642.0;;;5.08;75.8
64023;BME280;50264;52.088;5.296;2023-01-29T10:52:32;102644.0;;;5.05;75.22
64023;BME280;50264;52.088;5.296;2023-01-29T10:54:27;102641.00000000001;;;5.11;75.5
64023;BME280;50264;52.088;5.296;2023-01-29T10:56:21;102630.0;;;5.03;75.94
64023;BME280;50264;52.088;5.296;2023-01-29T11:00:02;102636.99999999999;;;5.14;76.69
64023;BME280;50264;52.088;5.296;2023-01-29T11:01:43;102628.0;;;5.14;74.86
64023;BME280;50264;52.088;5.296;2023-01-29T11:03:22;102621.0;;;5.11;75.28
64023;BME280;50264;52.088;5.296;2023-01-29T11:05:00;102617.0;;;5.11;75.06
64023;BME280;50264;52.088;5.296;2023-01-29T11:06:37;102617.0;;;5.19;75.56
64023;BME280;50264;52.088;5.296;2023-01-29T11:09:57;102615.00000000001;;;5.25;74.86
64023;BME280;50264;52.088;5.296;2023-01-29T11:11:40;102613.00000000001;;;5.22;75.92
64023;BME280;50264;52.088;5.296;2023-01-29T11:13:18;102607.0;;;5.14;75.72
64023;BME280;50264;52.088;5.296;2023-01-29T11:15:15;102603.0;;;5.09;75.75
64023;BME280;50264;52.088;5.296;2023-01-29T11:18:48;102603.0;;;4.99;76.08
64023;BME280;50264;52.088;5.296;2023-01-29T11:20:30;102601.0;;;5.05;76.22
64023;BME280;50264;52.088;5.296;2023-01-29T11:22:12;102597.0;;;5.18;76.02
64023;BME280;50264;52.088;5.296;2023-01-29T11:23:49;102606.0;;;5.29;74.95
64023;BME280;50264;52.088;5.296;2023-01-29T11:25:51;102603.0;;;5.35;75.66